Time;durP1;ratioP1;P1;durP2;ratioP2;P2;SDS_P1;SDS_P2;PMS_P1;PMS_P2;Temp;Humidity;BMP_temperature;BMP_pressure;BME280_temperature;BME280_humidity;BME280_pressure;Samples;Min_cycle;Max_cycle;Signal;HPM_P1;HPM_P2
2022/08/07 00:01:57;;;;;;;6.68;3.88;;;;;;;19.37;88.33;99923.81;10496170;28;20036;-73
2022/08/07 00:06:58;;;;;;;5.63;3.83;;;;;;;19.28;88.98;99927.91;10496053;28;20044;-72
2022/08/07 00:11:58;;;;;;;6.72;3.22;;;;;;;19.26;88.52;99932.69;10495741;28;20071;-72
2022/08/07 00:17:01;;;;;;;10.60;3.80;;;;;;;19.24;89.31;99927.56;10496005;28;20033;-71
2022/08/07 00:22:01;;;;;;;7.90;3.80;;;;;;;19.06;88.77;99895.38;10496133;28;20047;-72
2022/08/07 00:27:02;;;;;;;4.30;3.40;;;;;;;18.85;88.61;99859.91;10495537;28;20055;-72
2022/08/07 00:32:05;;;;;;;5.30;3.85;;;;;;;19.26;89.59;99928.13;10495460;28;20504;-72
2022/08/07 00:37:06;;;;;;;8.90;3.70;;;;;;;19.23;89.67;99930.47;10501249;28;20063;-72
2022/08/07 00:42:07;;;;;;;6.10;3.53;;;;;;;19.28;90.10;99936.00;10538064;28;20043;-72
2022/08/07 00:47:08;;;;;;;4.82;3.50;;;;;;;19.20;90.32;99922.88;10513899;28;20055;-72
2022/08/07 00:52:09;;;;;;;6.80;3.55;;;;;;;19.23;90.71;99928.59;10512993;28;20040;-72
2022/08/07 00:57:11;;;;;;;7.45;4.53;;;;;;;19.36;90.38;99933.75;10495644;28;20083;-72
2022/08/07 01:02:12;;;;;;;7.13;4.40;;;;;;;19.44;90.50;99943.34;10494866;28;20507;-72
2022/08/07 01:07:13;;;;;;;5.85;4.85;;;;;;;19.28;90.59;99930.59;10495115;28;20122;-72
2022/08/07 01:12:15;;;;;;;7.75;5.03;;;;;;;19.28;91.80;99949.44;10510897;28;20072;-72
2022/08/07 01:17:16;;;;;;;7.65;4.57;;;;;;;19.14;91.55;99938.09;10494464;28;20037;-72
2022/08/07 01:22:17;;;;;;;7.97;4.72;;;;;;;19.20;92.04;99939.03;10495690;28;20492;-72
2022/08/07 01:27:18;;;;;;;10.63;5.07;;;;;;;19.16;92.72;99944.88;10498876;28;20040;-72
2022/08/07 01:32:19;;;;;;;8.95;4.28;;;;;;;19.02;92.78;99913.03;10503146;28;20040;-72
2022/08/07 01:37:21;;;;;;;5.70;4.22;;;;;;;19.26;93.27;99944.28;10502376;28;20507;-72
2022/08/07 01:42:22;;;;;;;7.38;4.40;;;;;;;19.11;93.65;99912.44;10502176;28;20041;-72
2022/08/07 01:47:23;;;;;;;7.78;4.85;;;;;;;19.13;94.37;99931.88;10502478;28;20539;-72
2022/08/07 01:52:25;;;;;;;8.63;4.85;;;;;;;19.18;94.77;99946.53;10501810;28;20404;-72
2022/08/07 01:57:33;;;;;;;8.43;4.43;;;;;;;19.06;96.59;99950.03;10501730;28;20040;-72
2022/08/07 02:02:45;;;;;;;9.27;4.45;;;;;;;18.90;97.08;99945.31;10500981;28;20037;-71
2022/08/07 02:07:51;;;;;;;9.23;3.95;;;;;;;18.74;96.41;99946.03;10500586;28;20514;-72
2022/08/07 02:12:55;;;;;;;8.30;4.28;;;;;;;18.79;95.71;99949.66;10501194;28;20048;-72
2022/08/07 02:17:57;;;;;;;6.15;4.35;;;;;;;18.80;95.80;99972.00;10500532;28;20122;-72
2022/08/07 02:23:02;;;;;;;5.18;4.05;;;;;;;18.46;97.09;99916.00;10516068;28;20563;-74
2022/08/07 02:28:04;;;;;;;25.52;5.15;;;;;;;18.88;96.02;99947.44;10504068;28;20072;-72
2022/08/07 02:33:07;;;;;;;9.38;3.97;;;;;;;19.05;96.25;99964.53;10499687;28;20044;-72
2022/08/07 02:38:11;;;;;;;8.32;3.78;;;;;;;19.21;96.88;99983.78;10498852;28;20052;-72
2022/08/07 02:43:14;;;;;;;6.55;3.78;;;;;;;19.30;96.14;99996.66;10499867;28;20056;-72
2022/08/07 02:48:15;;;;;;;12.18;3.58;;;;;;;19.54;95.56;99989.38;10499700;28;20451;-72
2022/08/07 02:53:30;;;;;;;9.15;4.60;;;;;;;19.03;96.85;99855.47;10499225;28;20123;-72
2022/08/07 02:58:33;;;;;;;6.28;4.53;;;;;;;20.37;93.80;99995.44;10499681;28;20040;-72
2022/08/07 03:03:35;;;;;;;14.25;5.07;;;;;;;21.02;91.30;99998.75;10499029;28;20067;-73
2022/08/07 03:08:37;;;;;;;8.48;3.97;;;;;;;21.43;89.78;99990.22;10503103;28;20052;-72
2022/08/07 03:13:39;;;;;;;19.50;4.13;;;;;;;21.37;89.43;99949.88;10516910;28;20547;-72
2022/08/07 03:18:40;;;;;;;10.48;3.60;;;;;;;22.93;84.66;99978.16;10540338;28;20093;-73
2022/08/07 03:23:43;;;;;;;10.77;3.50;;;;;;;23.66;81.27;99986.53;10525080;28;20554;-73
2022/08/07 03:28:46;;;;;;;10.03;3.33;;;;;;;24.38;76.41;99974.09;10497353;28;20041;-74
2022/08/07 03:33:49;;;;;;;;;;;;;;;25.77;68.28;99982.19;10498378;28;20041;-69
2022/08/07 03:38:52;;;;;;;11.43;3.72;;;;;;;26.30;69.17;99990.69;10498002;28;19920;-73
2022/08/07 03:43:53;;;;;;;3.65;2.22;;;;;;;26.89;66.51;99986.22;10497999;28;20093;-72
2022/08/07 03:48:54;;;;;;;9.93;2.30;;;;;;;26.57;66.84;99963.84;10495943;28;20059;-72
2022/08/07 03:53:55;;;;;;;4.30;1.80;;;;;;;27.22;62.09;99908.25;10496555;28;20037;-72
2022/08/07 03:58:56;;;;;;;6.43;2.08;;;;;;;28.57;60.18;100000.78;10496891;28;20036;-71
2022/08/07 04:03:58;;;;;;;4.18;1.88;;;;;;;28.85;58.32;99982.56;10496812;28;20039;-71
2022/08/07 04:09:00;;;;;;;3.25;1.80;;;;;;;28.79;56.62;99978.28;10495910;28;20044;-73
2022/08/07 04:14:01;;;;;;;4.13;1.90;;;;;;;28.08;57.90;99988.28;10497550;28;20408;-72
2022/08/07 04:19:04;;;;;;;5.07;1.83;;;;;;;27.70;57.78;99990.94;10537097;28;20446;-74
2022/08/07 04:24:09;;;;;;;5.73;1.70;;;;;;;26.24;61.13;99972.75;10538427;28;20047;-72
2022/08/07 04:29:10;;;;;;;13.25;1.80;;;;;;;26.95;59.94;99963.28;10537464;28;20155;-74
2022/08/07 04:34:11;;;;;;;6.55;1.88;;;;;;;28.08;57.89;99980.09;10533839;28;20040;-73
2022/08/07 04:39:13;;;;;;;5.25;1.70;;;;;;;27.00;58.88;99911.44;10525656;28;20083;-72
2022/08/07 04:44:15;;;;;;;8.48;1.58;;;;;;;26.91;58.66;99984.84;10536838;28;20044;-72
2022/08/07 04:49:35;;;;;;;4.07;1.50;;;;;;;27.66;56.40;99978.94;10537726;28;20044;-75
2022/08/07 04:54:38;;;;;;;4.05;1.50;;;;;;;28.33;54.78;99991.78;10537341;28;20088;-72
2022/08/07 04:59:47;;;;;;;3.47;1.75;;;;;;;28.01;53.66;99918.78;10540090;28;20377;-70
2022/08/07 05:04:58;;;;;;;5.57;1.70;;;;;;;27.84;53.85;99922.00;10545822;28;20453;-69
2022/08/07 05:10:20;;;;;;;4.05;1.70;;;;;;;27.96;54.46;99996.91;10545495;28;20075;-70
2022/08/07 05:15:30;;;;;;;2.63;1.60;;;;;;;26.82;56.17;100002.91;10516606;28;20046;-70
2022/08/07 05:20:50;;;;;;;5.88;1.60;;;;;;;26.10;59.00;100010.66;10517565;28;20130;-69
2022/08/07 05:25:52;;;;;;;7.70;1.70;;;;;;;25.44;60.23;100023.34;10534930;28;20040;-70
2022/08/07 05:30:55;;;;;;;7.47;2.00;;;;;;;25.12;62.19;100022.78;10531010;28;20071;-68
2022/08/07 05:35:58;;;;;;;13.25;1.88;;;;;;;24.91;62.85;99987.47;10539969;28;20109;-67
2022/08/07 05:41:01;;;;;;;3.85;1.75;;;;;;;24.91;63.62;100019.25;10541073;28;20044;-68
2022/08/07 05:46:03;;;;;;;9.93;1.90;;;;;;;24.63;64.76;100009.72;10517221;28;20127;-70
2022/08/07 05:51:06;;;;;;;3.67;1.90;;;;;;;24.39;65.07;100021.03;10501723;28;20447;-70
2022/08/07 05:56:08;;;;;;;6.57;2.05;;;;;;;24.19;65.79;100010.13;10500706;28;20102;-68
2022/08/07 06:01:12;;;;;;;3.47;1.70;;;;;;;24.35;64.97;100036.22;10501569;28;21210;-67
2022/08/07 06:06:13;;;;;;;;;;;;;;;24.55;62.55;100017.31;10501116;28;20121;-67
2022/08/07 06:11:15;;;;;;;5.68;2.00;;;;;;;23.71;63.13;99945.09;10500690;28;19916;-68
2022/08/07 06:16:19;;;;;;;3.10;1.63;;;;;;;24.09;62.95;100011.72;10500561;28;20496;-68
2022/08/07 06:21:20;;;;;;;9.60;2.08;;;;;;;24.04;62.81;100008.16;10502314;28;20109;-67
2022/08/07 06:26:21;;;;;;;9.57;2.17;;;;;;;23.92;62.52;100005.66;10499347;28;20531;-69
2022/08/07 06:31:24;;;;;;;6.03;1.67;;;;;;;23.48;63.27;99959.84;10499607;28;20063;-68
2022/08/07 06:36:25;;;;;;;6.45;1.80;;;;;;;23.20;63.81;99929.34;10506104;28;20061;-68
2022/08/07 06:41:40;;;;;;;4.10;1.83;;;;;;;23.81;65.31;100029.22;10526808;28;20043;-69
2022/08/07 06:46:41;;;;;;;4.35;1.80;;;;;;;23.89;64.46;100014.34;10520296;28;20055;-69
2022/08/07 06:51:45;;;;;;;14.57;2.60;;;;;;;24.04;64.25;100019.00;10499766;28;20040;-70
2022/08/07 06:56:49;;;;;;;;;;;;;;;24.27;63.66;100015.03;10501478;28;20093;-71
2022/08/07 07:01:51;;;;;;;4.05;1.98;;;;;;;24.16;63.21;100008.75;10508253;28;20022;-72
2022/08/07 07:06:52;;;;;;;20.25;2.38;;;;;;;23.72;62.04;99905.22;10498883;28;20040;-71
2022/08/07 07:12:13;;;;;;;8.07;2.15;;;;;;;24.32;61.26;99985.19;10499143;28;20548;-71
2022/08/07 07:17:23;;;;;;;2.83;1.50;;;;;;;24.31;61.18;99965.38;10497120;28;20041;-69
2022/08/07 07:22:27;;;;;;;9.00;2.03;;;;;;;24.10;60.64;99921.06;10497802;28;20196;-68
2022/08/07 07:27:33;;;;;;;23.80;3.17;;;;;;;24.56;61.10;99980.94;10527109;28;20080;-68
2022/08/07 07:32:39;;;;;;;9.20;1.83;;;;;;;24.57;60.88;99979.84;10527782;28;20397;-68
2022/08/07 07:37:41;;;;;;;5.32;1.83;;;;;;;24.58;60.87;99967.88;10511274;28;20055;-72
2022/08/07 07:42:43;;;;;;;7.30;1.90;;;;;;;24.69;60.57;99954.31;10518838;28;20087;-71
2022/08/07 07:47:46;;;;;;;5.38;2.03;;;;;;;25.10;60.65;99976.03;10536730;28;20042;-68
2022/08/07 07:52:48;;;;;;;32.63;3.47;;;;;;;25.38;60.06;99964.63;10537188;28;20040;-69
2022/08/07 07:57:50;;;;;;;26.00;3.13;;;;;;;25.67;58.80;99951.22;10538402;28;20097;-72
2022/08/07 08:02:54;;;;;;;5.28;2.00;;;;;;;26.18;57.30;99961.91;10538950;28;20064;-69
2022/08/07 08:07:55;;;;;;;8.73;5.35;;;;;;;26.45;57.29;99938.06;10537992;28;20138;-70
2022/08/07 08:12:58;;;;;;;12.57;5.10;;;;;;;26.59;55.76;99961.69;10532027;28;20122;-70
2022/08/07 08:18:00;;;;;;;45.43;3.93;;;;;;;26.70;55.65;99940.59;10495237;28;20036;-69
2022/08/07 08:28:27;;;;;;;7.72;2.45;;;;;;;27.39;54.47;99929.63;10495539;28;20119;-72
2022/08/07 08:33:32;;;;;;;15.73;2.35;;;;;;;27.49;53.05;99907.66;10515312;28;20431;-71
2022/08/07 08:38:38;;;;;;;8.15;1.98;;;;;;;27.47;51.28;99855.34;10537583;28;20060;-68
2022/08/07 08:43:50;;;;;;;7.32;2.00;;;;;;;28.24;51.82;99917.91;10535852;28;20040;-70
2022/08/07 08:48:58;;;;;;;11.98;1.80;;;;;;;28.53;50.99;99892.34;10537409;28;20052;-70
2022/08/07 08:54:22;;;;;;;3.40;2.47;;;;;;;28.27;50.72;99829.09;10536682;28;20126;-69
2022/08/07 09:00:05;;;;;;;5.03;1.55;;;;;;;29.25;46.94;99906.38;10530875;28;20056;-70
2022/08/07 09:05:32;;;;;;;2.85;1.15;;;;;;;29.47;44.11;99897.50;10532020;28;20150;-70
2022/08/07 09:11:01;;;;;;;10.60;1.83;;;;;;;28.78;44.93;99908.31;10498660;28;20048;-69
2022/08/07 09:16:21;;;;;;;4.28;1.85;;;;;;;28.16;46.69;99855.75;10506423;28;20067;-67
2022/08/07 09:21:36;;;;;;;16.88;2.25;;;;;;;28.86;46.92;99887.66;10509409;28;20066;-69
2022/08/07 09:26:48;;;;;;;13.43;1.70;;;;;;;29.46;45.54;99897.78;10511319;28;20047;-69
2022/08/07 09:32:24;;;;;;;4.47;1.50;;;;;;;29.70;45.11;99895.66;10509829;28;20040;-71
2022/08/07 09:37:42;;;;;;;12.40;1.65;;;;;;;29.73;45.38;99886.81;10513499;28;20056;-69
2022/08/07 09:42:55;;;;;;;3.50;1.40;;;;;;;29.91;42.70;99892.47;10511601;28;20086;-67
2022/08/07 09:48:10;;;;;;;6.90;1.60;;;;;;;29.97;43.30;99889.31;10514609;28;20663;-67
2022/08/07 09:53:14;;;;;;;25.90;2.50;;;;;;;29.66;43.72;99841.84;10495142;28;20039;-68
2022/08/07 09:58:41;;;;;;;3.08;1.38;;;;;;;30.28;39.16;99912.50;10526792;28;20090;-67
2022/08/07 10:04:01;;;;;;;9.55;1.58;;;;;;;29.90;42.14;99908.09;10539174;28;20051;-68
2022/08/07 10:09:27;;;;;;;5.32;1.30;;;;;;;30.35;41.47;99901.91;10543336;28;20048;-68
2022/08/07 10:14:39;;;;;;;2.83;1.30;;;;;;;30.54;42.10;99888.00;10542866;28;20039;-68
2022/08/07 10:19:59;;;;;;;;;;;;;;;30.91;41.51;99898.59;10543722;28;20445;-66
2022/08/07 10:25:30;;;;;;;4.38;1.58;;;;;;;30.52;41.92;99901.25;10543049;28;19912;-69
2022/08/07 10:31:06;;;;;;;6.13;1.30;;;;;;;30.07;41.85;99817.06;10541608;28;20427;-67
2022/08/07 10:36:44;;;;;;;4.20;1.50;;;;;;;30.06;42.26;99894.06;10553341;28;20056;-69
2022/08/07 10:42:10;;;;;;;5.30;1.73;;;;;;;29.85;42.37;99890.97;10523790;28;20043;-69
2022/08/07 10:47:30;;;;;;;5.47;1.42;;;;;;;29.51;42.90;99851.97;10535948;28;20039;-68
2022/08/07 10:52:38;;;;;;;4.82;1.60;;;;;;;29.32;44.27;99843.09;10543248;28;20040;-67
2022/08/07 10:57:55;;;;;;;7.00;1.63;;;;;;;29.55;43.25;99880.34;10520844;28;20047;-68
2022/08/07 11:03:02;;;;;;;3.15;1.52;;;;;;;29.11;43.95;99818.88;10505391;28;20044;-69
2022/08/07 11:08:22;;;;;;;2.80;1.33;;;;;;;29.44;42.92;99868.00;10512229;28;20056;-68
2022/08/07 11:13:28;;;;;;;3.28;1.35;;;;;;;29.56;40.76;99864.75;10520477;28;20040;-69
2022/08/07 11:18:34;;;;;;;5.95;1.50;;;;;;;29.79;41.36;99863.69;10525600;28;20051;-69
2022/08/07 11:23:56;;;;;;;12.63;1.88;;;;;;;29.66;40.25;99861.81;10513881;28;20044;-68
2022/08/07 11:29:08;;;;;;;;;;;;;;;29.84;41.09;99851.03;10496959;28;20041;-68
2022/08/07 11:34:28;;;;;;;10.63;2.05;;;;;;;29.75;42.71;99835.31;10517835;28;19924;-70
2022/08/07 11:39:32;;;;;;;2.47;1.30;;;;;;;29.92;41.58;99834.66;10522530;28;20080;-68
2022/08/07 11:45:00;;;;;;;2.92;1.30;;;;;;;29.86;41.53;99844.13;10497487;28;20072;-68
2022/08/07 11:50:34;;;;;;;11.75;1.50;;;;;;;29.10;41.16;99707.03;10497029;28;20127;-67
2022/08/07 11:55:56;;;;;;;5.32;1.60;;;;;;;29.88;40.42;99819.97;10496511;28;20059;-69
2022/08/07 12:01:03;;;;;;;2.85;1.20;;;;;;;29.87;40.73;99820.28;10509962;28;20028;-68
2022/08/07 12:06:36;;;;;;;5.30;2.72;;;;;;;29.97;39.47;99825.50;10524847;28;20048;-70
2022/08/07 12:11:43;;;;;;;6.28;1.85;;;;;;;29.79;40.43;99819.88;10495898;28;20036;-67
2022/08/07 12:16:57;;;;;;;6.95;1.63;;;;;;;29.69;40.29;99800.97;10502391;28;20063;-69
2022/08/07 12:22:02;;;;;;;3.80;1.33;;;;;;;30.08;40.20;99806.91;10511295;28;20123;-67
2022/08/07 12:27:15;;;;;;;5.72;1.38;;;;;;;30.24;40.09;99811.75;10535350;28;20380;-67
2022/08/07 12:32:38;;;;;;;8.57;1.40;;;;;;;30.15;40.41;99810.03;10497209;28;20448;-68
2022/08/07 12:37:45;;;;;;;5.95;1.35;;;;;;;29.93;39.49;99819.84;10496267;28;20118;-68
2022/08/07 12:42:52;;;;;;;7.20;1.30;;;;;;;29.71;40.87;99815.16;10495477;28;20052;-70
2022/08/07 12:48:36;;;;;;;9.55;1.90;;;;;;;29.75;40.61;99801.66;10495326;28;20044;-69
2022/08/07 12:53:46;;;;;;;3.60;1.20;;;;;;;29.52;40.40;99789.81;10456634;28;20047;-70
2022/08/07 12:58:50;;;;;;;6.65;1.55;;;;;;;29.65;40.87;99812.84;10528805;28;20106;-68
2022/08/07 13:04:04;;;;;;;7.68;1.13;;;;;;;29.50;40.84;99786.59;10518799;28;20059;-71
2022/08/07 13:09:25;;;;;;;34.40;14.27;;;;;;;29.12;41.31;99740.38;10494935;28;20537;-73
2022/08/07 13:14:29;;;;;;;7.50;4.90;;;;;;;29.51;42.02;99807.38;10532140;28;20047;-73
2022/08/07 13:19:42;;;;;;;12.82;3.60;;;;;;;29.35;42.30;99799.50;10537855;28;20040;-70
2022/08/07 13:25:39;;;;;;;15.75;2.22;;;;;;;29.37;42.03;99801.91;10545463;28;20130;-69
2022/08/07 13:30:48;;;;;;;4.30;1.80;;;;;;;29.26;41.58;99789.59;10490983;28;20111;-72
2022/08/07 13:35:55;;;;;;;5.03;1.63;;;;;;;28.98;41.07;99737.59;10494175;28;20105;-68
2022/08/07 13:41:24;;;;;;;9.23;1.77;;;;;;;29.30;41.68;99796.88;10501951;28;20537;-74
2022/08/07 13:46:34;;;;;;;9.27;2.53;;;;;;;28.84;41.73;99725.91;10502235;28;20048;-68
2022/08/07 13:51:36;;;;;;;5.38;1.60;;;;;;;28.95;42.30;99730.00;10513039;28;20045;-69
2022/08/07 13:56:41;;;;;;;4.73;1.70;;;;;;;29.41;42.40;99772.84;10503567;28;20051;-71
2022/08/07 14:02:06;;;;;;;18.63;2.22;;;;;;;29.38;42.60;99787.13;10501655;28;20072;-70
2022/08/07 14:07:08;;;;;;;7.13;1.73;;;;;;;29.33;42.44;99792.72;10500471;28;20044;-71
2022/08/07 14:12:54;;;;;;;27.40;3.10;;;;;;;29.52;42.02;99796.09;10501690;28;20405;-71
2022/08/07 14:18:01;;;;;;;9.50;2.00;;;;;;;29.41;41.23;99718.13;10493937;28;20044;-69
2022/08/07 14:23:16;;;;;;;9.43;1.75;;;;;;;30.06;40.90;99798.19;10516027;28;20500;-70
2022/08/07 14:28:18;;;;;;;27.25;2.75;;;;;;;29.64;41.74;99778.38;10501084;28;20511;-70
2022/08/07 14:33:20;;;;;;;10.93;2.17;;;;;;;29.27;42.00;99767.38;10500759;28;20097;-70
2022/08/07 14:38:28;;;;;;;12.70;2.07;;;;;;;28.93;42.66;99743.19;10537008;28;20063;-71
2022/08/07 14:43:33;;;;;;;8.00;1.70;;;;;;;29.11;42.52;99798.94;10509032;28;20040;-70
2022/08/07 14:48:39;;;;;;;8.73;1.63;;;;;;;29.08;42.33;99805.00;10499073;28;20111;-70
2022/08/07 14:53:42;;;;;;;10.77;1.85;;;;;;;29.09;41.99;99801.94;10499799;28;20408;-71
2022/08/07 14:58:50;;;;;;;15.25;2.20;;;;;;;29.20;41.42;99793.56;10515742;28;20074;-71
2022/08/07 15:03:52;;;;;;;3.38;1.58;;;;;;;28.81;41.31;99734.72;10500276;28;20041;-71
2022/08/07 15:08:53;;;;;;;10.53;1.90;;;;;;;29.34;41.29;99805.25;10498837;28;20494;-70
2022/08/07 15:14:02;;;;;;;5.20;2.08;;;;;;;29.34;45.37;99799.78;10498811;28;20056;-69
2022/08/07 15:19:09;;;;;;;49.22;4.18;;;;;;;29.20;46.93;99812.69;10498692;28;20036;-70
2022/08/07 15:24:16;;;;;;;4.03;2.00;;;;;;;29.01;47.40;99802.63;10517926;28;20105;-68
2022/08/07 15:29:20;;;;;;;3.78;2.00;;;;;;;28.88;47.09;99815.19;10539630;28;20058;-70
2022/08/07 15:34:21;;;;;;;5.53;1.92;;;;;;;28.54;47.64;99810.09;10538617;28;20054;-71
2022/08/07 15:39:24;;;;;;;7.00;2.45;;;;;;;28.26;48.91;99822.00;10531660;28;20044;-70
2022/08/07 15:44:29;;;;;;;4.55;2.00;;;;;;;28.04;50.22;99820.72;10538605;28;20052;-70
2022/08/07 15:49:34;;;;;;;6.97;2.80;;;;;;;27.85;51.57;99830.81;10538300;28;20089;-71
2022/08/07 15:54:38;;;;;;;17.38;3.17;;;;;;;27.62;52.61;99837.97;10539416;28;20046;-72
2022/08/07 15:59:41;;;;;;;30.50;3.78;;;;;;;26.94;53.24;99765.41;10508806;28;20496;-71
2022/08/07 16:04:43;;;;;;;14.65;3.65;;;;;;;27.02;53.49;99811.13;10513255;28;20395;-71
2022/08/07 16:09:52;;;;;;;23.45;3.80;;;;;;;26.39;54.64;99761.06;10534686;28;20499;-72
2022/08/07 16:15:28;;;;;;;21.75;3.90;;;;;;;26.68;56.39;99833.00;10536432;28;20032;-71
2022/08/07 16:21:10;;;;;;;132.73;11.07;;;;;;;26.46;58.18;99836.16;10534316;28;20043;-71
2022/08/07 16:26:33;;;;;;;67.32;7.22;;;;;;;26.11;59.04;99825.28;10407213;28;20033;-72
2022/08/07 16:31:46;;;;;;;43.35;5.60;;;;;;;25.27;59.68;99750.97;10519849;28;20056;-71
2022/08/07 16:37:14;;;;;;;20.75;5.28;;;;;;;25.67;60.74;99856.00;10526632;28;20052;-72
2022/08/07 16:42:26;;;;;;;56.28;6.45;;;;;;;24.93;60.38;99783.44;10535059;28;20419;-70
2022/08/07 16:48:18;;;;;;;23.10;4.63;;;;;;;25.34;61.70;99870.28;10532617;28;20102;-69
2022/08/07 16:53:48;;;;;;;27.23;6.00;;;;;;;25.19;62.01;99868.44;10526547;28;20063;-69
2022/08/07 16:58:53;;;;;;;19.98;4.90;;;;;;;25.11;61.04;99871.69;10462029;28;20397;-71
2022/08/07 17:04:31;;;;;;;16.92;5.13;;;;;;;24.98;63.64;99878.53;10544546;28;20044;-68
2022/08/07 17:09:52;;;;;;;26.48;4.55;;;;;;;24.84;61.86;99883.69;10539707;28;20131;-69
2022/08/07 17:15:15;;;;;;;34.97;5.97;;;;;;;24.59;63.68;99868.25;10545466;28;20441;-72
2022/08/07 17:20:29;;;;;;;24.40;7.83;;;;;;;24.57;64.62;99894.84;10503374;28;20044;-71
2022/08/07 17:25:40;;;;;;;24.73;8.05;;;;;;;23.82;64.59;99792.16;10502129;28;20865;-70
2022/08/07 17:31:04;;;;;;;25.90;7.30;;;;;;;23.75;66.02;99790.78;10501713;28;20488;-71
2022/08/07 17:36:17;;;;;;;28.25;7.60;;;;;;;24.27;65.59;99892.91;10502992;28;20065;-72
2022/08/07 17:41:27;;;;;;;32.53;7.77;;;;;;;23.72;66.56;99832.00;10502443;28;20067;-72
2022/08/07 17:46:51;;;;;;;19.55;7.45;;;;;;;23.49;66.93;99827.84;10501759;28;20282;-71
2022/08/07 17:52:04;;;;;;;25.55;8.25;;;;;;;23.69;66.70;99898.41;10534575;28;20048;-72
2022/08/07 17:57:12;;;;;;;43.97;12.75;;;;;;;23.54;68.17;99901.88;10543997;28;20048;-72
2022/08/07 18:02:31;;;;;;;31.08;12.13;;;;;;;23.13;70.38;99841.25;10543111;28;20044;-72
2022/08/07 18:07:35;;;;;;;33.53;12.43;;;;;;;23.49;69.81;99912.69;10542337;28;20044;-72
2022/08/07 18:13:00;;;;;;;37.58;12.98;;;;;;;23.52;69.13;99912.19;10542604;28;20054;-72
2022/08/07 18:18:10;;;;;;;28.95;10.70;;;;;;;22.81;69.03;99825.84;10542367;28;20089;-72
2022/08/07 18:23:23;;;;;;;41.40;14.98;;;;;;;23.20;70.89;99901.44;10535367;28;20075;-72
2022/08/07 18:28:52;;;;;;;33.83;10.40;;;;;;;23.16;69.90;99903.03;10500114;28;20051;-72
2022/08/07 18:34:11;;;;;;;23.73;8.40;;;;;;;22.70;69.80;99846.63;10500715;28;20032;-72
2022/08/07 18:39:38;;;;;;;25.65;9.38;;;;;;;22.93;69.78;99899.59;10500547;28;20052;-72
2022/08/07 18:45:01;;;;;;;28.73;9.38;;;;;;;22.86;70.28;99899.03;10500644;28;20492;-71
2022/08/07 18:50:26;;;;;;;19.43;7.30;;;;;;;22.63;70.84;99875.00;10499940;28;20036;-71
2022/08/07 18:55:55;;;;;;;27.90;8.93;;;;;;;22.73;72.29;99905.66;10512268;28;20040;-71
2022/08/07 19:00:56;;;;;;;28.70;9.02;;;;;;;22.45;71.24;99916.81;10481106;28;20109;-71
2022/08/07 19:06:03;;;;;;;28.08;9.27;;;;;;;22.18;74.21;99887.88;10499146;28;20033;-71
2022/08/07 19:26:19;;;;;;;18.65;9.10;;;;;;;22.22;74.79;99907.94;10531045;28;20755;-72
2022/08/07 19:31:28;;;;;;;16.95;8.98;;;;;;;22.11;76.12;99898.06;10530119;28;20052;-72
2022/08/07 19:36:33;;;;;;;16.48;7.88;;;;;;;22.12;73.99;99902.41;10531552;28;20032;-72
2022/08/07 19:41:43;;;;;;;17.27;8.70;;;;;;;22.03;74.64;99890.41;10506571;28;20040;-72
2022/08/07 19:46:49;;;;;;;13.95;7.40;;;;;;;21.59;73.79;99836.38;10474935;28;20048;-73
2022/08/07 19:51:52;;;;;;;14.52;6.50;;;;;;;22.05;73.19;99915.31;10458716;28;20049;-72
2022/08/07 19:56:57;;;;;;;15.37;6.50;;;;;;;21.71;73.66;99858.69;10467197;28;20078;-73
2022/08/07 20:02:02;;;;;;;11.23;5.15;;;;;;;21.97;72.93;99900.34;10482686;28;20056;-74
2022/08/07 20:07:09;;;;;;;6.95;4.63;;;;;;;21.99;73.04;99895.50;10481604;28;20036;-71
2022/08/07 20:12:14;;;;;;;9.23;3.85;;;;;;;22.29;69.90;99910.44;10482086;28;20051;-72
2022/08/07 20:17:17;;;;;;;10.20;3.20;;;;;;;22.74;65.19;99910.03;10481411;28;20037;-73
2022/08/07 20:22:20;;;;;;;;;;;;;;;23.28;63.45;99924.53;10487890;28;20072;-72
2022/08/07 20:27:24;;;;;;;9.50;3.80;;;;;;;23.00;64.97;99885.84;10447985;28;20403;-72
2022/08/07 20:32:40;;;;;;;7.22;3.80;;;;;;;22.53;66.30;99835.16;10418187;28;20511;-72
2022/08/07 20:37:49;;;;;;;9.07;4.30;;;;;;;22.46;68.74;99858.91;10418618;28;20045;-71
2022/08/07 20:42:55;;;;;;;12.60;4.65;;;;;;;22.62;70.02;99898.56;10417989;28;20092;-71
2022/08/07 20:47:56;;;;;;;10.02;4.28;;;;;;;22.22;70.51;99853.81;10422531;28;20072;-72
2022/08/07 20:52:58;;;;;;;12.32;4.53;;;;;;;22.63;70.81;99929.16;10460215;28;20036;-72
2022/08/07 20:58:00;;;;;;;9.00;4.40;;;;;;;22.37;71.92;99911.88;10459049;28;20052;-71
2022/08/07 21:03:03;;;;;;;19.00;4.97;;;;;;;22.15;73.92;99928.94;10459549;28;20047;-71
2022/08/07 21:08:10;;;;;;;16.90;4.57;;;;;;;22.10;75.28;99928.88;10458856;28;20051;-71
2022/08/07 21:13:16;;;;;;;17.08;4.97;;;;;;;22.03;75.45;99942.59;10458458;28;20074;-71
2022/08/07 21:18:24;;;;;;;20.48;4.68;;;;;;;21.79;76.73;99938.53;10458624;28;20065;-72
2022/08/07 21:23:33;;;;;;;14.60;4.03;;;;;;;21.80;78.43;99972.59;10458405;28;20498;-71
2022/08/07 21:28:44;;;;;;;19.70;4.75;;;;;;;21.47;78.62;99936.50;10457585;28;20051;-71
2022/08/07 21:33:55;;;;;;;18.50;4.70;;;;;;;21.56;80.39;99970.13;10457661;28;20137;-71
2022/08/07 21:39:18;;;;;;;11.90;4.13;;;;;;;21.50;80.17;99959.50;10442454;28;20041;-71
2022/08/07 21:44:23;;;;;;;23.83;5.15;;;;;;;21.32;79.15;99950.59;10457180;28;20045;-71
2022/08/07 21:49:46;;;;;;;16.20;4.18;;;;;;;21.21;81.62;99954.22;10456633;28;20037;-71
2022/08/07 21:55:02;;;;;;;15.63;4.32;;;;;;;21.14;82.21;99983.25;10456174;28;20037;-71
2022/08/07 22:00:14;;;;;;;14.95;4.40;;;;;;;21.01;83.64;99976.31;10456706;28;20048;-71
2022/08/07 22:05:23;;;;;;;19.35;4.53;;;;;;;21.01;83.75;99976.31;10456929;28;20043;-71
2022/08/07 22:10:29;;;;;;;19.35;4.40;;;;;;;20.96;81.89;99971.63;10456229;28;20127;-71
2022/08/07 22:15:40;;;;;;;14.57;5.57;;;;;;;21.03;82.42;99992.25;10441808;28;20064;-71
2022/08/07 22:20:58;;;;;;;24.23;4.68;;;;;;;21.02;81.78;99974.44;10455912;28;20060;-71
2022/08/07 22:26:23;;;;;;;16.40;4.32;;;;;;;21.16;83.19;99991.94;10456192;28;20056;-71
2022/08/07 22:31:46;;;;;;;12.75;3.95;;;;;;;21.10;83.75;99992.94;10455486;28;20056;-71
2022/08/07 22:37:12;;;;;;;20.05;5.32;;;;;;;21.05;82.65;99998.25;10448159;28;20049;-71
2022/08/07 22:42:22;;;;;;;14.10;4.43;;;;;;;20.79;82.55;99951.94;10454655;28;20036;-71
2022/08/07 22:47:50;;;;;;;18.58;4.78;;;;;;;21.17;83.06;99996.28;10454143;28;20047;-71
2022/08/07 22:53:36;;;;;;;14.27;4.90;;;;;;;21.15;82.52;99998.44;10440699;28;20194;-71
2022/08/07 22:58:49;;;;;;;14.70;5.03;;;;;;;21.09;82.55;99996.69;10454585;28;20128;-71
2022/08/07 23:04:08;;;;;;;21.07;5.27;;;;;;;20.95;83.48;99961.09;10452844;28;20109;-71
2022/08/07 23:09:29;;;;;;;31.30;6.32;;;;;;;21.12;82.64;99994.34;10453874;28;20272;-71
2022/08/07 23:15:02;;;;;;;22.27;6.43;;;;;;;21.19;83.09;99994.16;10453658;28;20093;-71
2022/08/07 23:25:46;;;;;;;14.48;5.50;;;;;;;20.26;82.94;99862.25;10454429;28;20402;-71
2022/08/07 23:31:15;;;;;;;23.55;6.00;;;;;;;21.10;83.33;100007.25;10454048;28;20045;-72
2022/08/07 23:36:53;;;;;;;21.10;6.18;;;;;;;21.07;84.26;100004.22;10453348;28;20552;-73
2022/08/07 23:42:31;;;;;;;25.88;8.15;;;;;;;21.09;83.55;100008.31;10453148;28;20131;-72
2022/08/07 23:47:44;;;;;;;21.60;8.38;;;;;;;21.05;83.77;100012.56;10453640;28;20037;-72
2022/08/07 23:52:56;;;;;;;21.13;8.67;;;;;;;20.95;83.35;100007.81;10453719;28;20091;-72
2022/08/07 23:58:05;;;;;;;23.77;9.55;;;;;;;20.52;83.13;99960.66;10453798;28;20052;-72
